Overseas Milos — V7WR8 — position and weather

sailwx.info

Track history (hours):
 
Tides and Currents Weather Stations Pressure Air Temp Water Temp Dewpoint Dewpoint Depression Visibility Wind Speed Wind Dir Waves Ship Positions

Overseas Milos

Last reported at 2016-May-04 12:33 UTC. Time now 2016-May-05 02:56 UTC.
Position N 35°58' W 005°36'.

Length 183 m; draft 8.4 m.

Type: Tanker. MMSI: 538004376.

Date/timePositionNaut miles runAvg speedWind from/ knotsBaromVisibWave heightAir tempDewpointWater temp
2016-May-04 12:33N 35°58' W 005°36'1110.8
2016-May-04 11:33N 36°02' W 005°24'4 3.5
2016-May-04 10:31N 36°06' W 005°25'0 0.0
2016-May-04 09:31N 36°06' W 005°25'0 0.0
2016-May-04 08:31N 36°06' W 005°25'0 0.0
2016-May-04 07:31N 36°06' W 005°25'0 0.0
2016-May-04 06:28N 36°06' W 005°25'0 0.0
2016-May-04 05:31N 36°06' W 005°25'0 0.0
2016-May-04 04:31N 36°06' W 005°25'0 0.0
2016-May-04 03:28N 36°06' W 005°25'0 0.0
2016-May-04 02:28N 36°06' W 005°25'0 0.0
2016-May-04 01:28N 36°06' W 005°25'0 0.1
2016-May-04 00:31N 36°06' W 005°25'0 0.0
2016-May-03 23:31N 36°06' W 005°25'0 0.0
2016-May-03 22:31N 36°06' W 005°25'0 0.0
2016-May-03 21:31N 36°06' W 005°25'0 0.0
2016-May-03 20:28N 36°06' W 005°25'0 0.0
2016-May-03 19:28N 36°06' W 005°25'0 0.0
2016-May-03 18:10N 36°06' W 005°25'0 0.0
2016-May-03 17:22N 36°06' W 005°25'0 0.0
2016-May-03 16:28N 36°06' W 005°25'0 0.0
2016-May-03 15:31N 36°06' W 005°25'1 0.7
2016-May-03 14:33N 36°06' W 005°24'3 0.8
2016-May-03 11:13N 36°07' W 005°22'0 0.0
2016-May-03 10:10N 36°07' W 005°22'0 0.1
2016-May-03 09:13N 36°07' W 005°22'0 0.1
2016-May-03 07:25N 36°07' W 005°22'1 1.4
2016-May-03 06:23N 36°06' W 005°22'6 7.7
2016-May-03 05:33N 36°03' W 005°15'21812.0
2016-May-02 11:27N 37°16' W 000°59'1212.8
2016-May-02 10:33N 37°24' W 000°48'1313.0
2016-May-02 09:33N 37°33' W 000°36'1212.5
2016-May-02 08:33N 37°43' W 000°27'1312.7
2016-May-02 07:33N 37°53' W 000°18'1312.6
2016-May-02 06:32N 38°04' W 000°09'1212.1
2016-May-02 05:33N 38°14' W 000°01'11512.7
2016-May-01 20:33N 39°53' E 001°12'1312.9
2016-May-01 19:33N 40°05' E 001°20'1312.7
2016-May-01 18:33N 40°16' E 001°28'1312.5
2016-May-01 17:33N 40°27' E 001°36'1312.7
2016-May-01 16:33N 40°38' E 001°44'1313.0
2016-May-01 15:33N 40°49' E 001°52'1312.5
2016-May-01 14:33N 41°00' E 001°60'1312.5
2016-May-01 13:33N 41°11' E 002°08'19 0.4
2016-Apr-29 15:33N 40°54' E 001°58'1212.3
2016-Apr-29 14:33N 40°43' E 001°49'1312.5
2016-Apr-29 13:33N 40°32' E 001°41'1312.8
2016-Apr-29 12:33N 40°20' E 001°34'1312.6
2016-Apr-29 11:33N 40°10' E 001°26'1312.7
2016-Apr-29 10:33N 39°58' E 001°18'13712.1
2016-Apr-28 23:11N 37°59' W 000°09'811.7
2016-Apr-28 22:33N 37°53' W 000°15'1211.9
2016-Apr-28 21:33N 37°43' W 000°23'1212.2
2016-Apr-28 20:33N 37°33' W 000°32'1212.4
2016-Apr-28 19:33N 37°24' W 000°43'1212.3
2016-Apr-28 18:33N 37°16' W 000°55'22712.6
2016-Apr-28 00:33N 35°59' W 005°21'  
Track history (hours):
 
Tides and Currents Weather Stations Pressure Air Temp Water Temp Dewpoint Dewpoint Depression Visibility Wind Speed Wind Dir Waves Ship Positions

Overseas Milos

Last reported at 2016-May-04 12:33 UTC. Time now 2016-May-05 02:56 UTC.
Position N 35°58' W 005°36'.

Length 183 m; draft 8.4 m.

Type: Tanker. MMSI: 538004376.

Date/timePositionNaut miles runAvg speedWind from/ knotsBaromVisibWave heightAir tempDewpointWater temp
2016-May-04 12:33N 35°58' W 005°36'1110.8
2016-May-04 11:33N 36°02' W 005°24'4 3.5
2016-May-04 10:31N 36°06' W 005°25'0 0.0
2016-May-04 09:31N 36°06' W 005°25'0 0.0
2016-May-04 08:31N 36°06' W 005°25'0 0.0
2016-May-04 07:31N 36°06' W 005°25'0 0.0
2016-May-04 06:28N 36°06' W 005°25'0 0.0
2016-May-04 05:31N 36°06' W 005°25'0 0.0
2016-May-04 04:31N 36°06' W 005°25'0 0.0
2016-May-04 03:28N 36°06' W 005°25'0 0.0
2016-May-04 02:28N 36°06' W 005°25'0 0.0
2016-May-04 01:28N 36°06' W 005°25'0 0.1
2016-May-04 00:31N 36°06' W 005°25'0 0.0
2016-May-03 23:31N 36°06' W 005°25'0 0.0
2016-May-03 22:31N 36°06' W 005°25'0 0.0
2016-May-03 21:31N 36°06' W 005°25'0 0.0
2016-May-03 20:28N 36°06' W 005°25'0 0.0
2016-May-03 19:28N 36°06' W 005°25'0 0.0
2016-May-03 18:10N 36°06' W 005°25'0 0.0
2016-May-03 17:22N 36°06' W 005°25'0 0.0
2016-May-03 16:28N 36°06' W 005°25'0 0.0
2016-May-03 15:31N 36°06' W 005°25'1 0.7
2016-May-03 14:33N 36°06' W 005°24'3 0.8
2016-May-03 11:13N 36°07' W 005°22'0 0.0
2016-May-03 10:10N 36°07' W 005°22'0 0.1
2016-May-03 09:13N 36°07' W 005°22'0 0.1
2016-May-03 07:25N 36°07' W 005°22'1 1.4
2016-May-03 06:23N 36°06' W 005°22'6 7.7
2016-May-03 05:33N 36°03' W 005°15'21812.0
2016-May-02 11:27N 37°16' W 000°59'1212.8
2016-May-02 10:33N 37°24' W 000°48'1313.0
2016-May-02 09:33N 37°33' W 000°36'1212.5
2016-May-02 08:33N 37°43' W 000°27'1312.7
2016-May-02 07:33N 37°53' W 000°18'1312.6
2016-May-02 06:32N 38°04' W 000°09'1212.1
2016-May-02 05:33N 38°14' W 000°01'11512.7
2016-May-01 20:33N 39°53' E 001°12'1312.9
2016-May-01 19:33N 40°05' E 001°20'1312.7
2016-May-01 18:33N 40°16' E 001°28'1312.5
2016-May-01 17:33N 40°27' E 001°36'1312.7
2016-May-01 16:33N 40°38' E 001°44'1313.0
2016-May-01 15:33N 40°49' E 001°52'1312.5
2016-May-01 14:33N 41°00' E 001°60'1312.5
2016-May-01 13:33N 41°11' E 002°08'19 0.4
2016-Apr-29 15:33N 40°54' E 001°58'1212.3
2016-Apr-29 14:33N 40°43' E 001°49'1312.5
2016-Apr-29 13:33N 40°32' E 001°41'1312.8
2016-Apr-29 12:33N 40°20' E 001°34'1312.6
2016-Apr-29 11:33N 40°10' E 001°26'1312.7
2016-Apr-29 10:33N 39°58' E 001°18'13712.1
2016-Apr-28 23:11N 37°59' W 000°09'811.7
2016-Apr-28 22:33N 37°53' W 000°15'1211.9
2016-Apr-28 21:33N 37°43' W 000°23'1212.2
2016-Apr-28 20:33N 37°33' W 000°32'1212.4
2016-Apr-28 19:33N 37°24' W 000°43'1212.3
2016-Apr-28 18:33N 37°16' W 000°55'22712.6
2016-Apr-28 00:33N 35°59' W 005°21'  

Dump ship's entire track history